sensor_id;sensor_type;location;lat;lon;timestamp;pressure;altitude;pressure_sealevel;temperature;humidity
14343;BME280;7255;53.596;9.960;2023-04-08T00:00:27;102074.25;;;7.05;nan
14343;BME280;7255;53.596;9.960;2023-04-08T00:02:53;102076.25;;;7.19;nan
14343;BME280;7255;53.596;9.960;2023-04-08T00:05:20;102059.72;;;6.83;nan
14343;BME280;7255;53.596;9.960;2023-04-08T00:07:46;102059.22;;;7.12;nan
14343;BME280;7255;53.596;9.960;2023-04-08T00:10:12;102070.91;;;7.03;nan
14343;BME280;7255;53.596;9.960;2023-04-08T00:12:38;102058.72;;;7.08;nan
14343;BME280;7255;53.596;9.960;2023-04-08T00:15:07;102067.22;;;7.20;nan
14343;BME280;7255;53.596;9.960;2023-04-08T00:17:33;102072.56;;;7.20;nan
14343;BME280;7255;53.596;9.960;2023-04-08T00:20:00;102074.25;;;7.05;nan
14343;BME280;7255;53.596;9.960;2023-04-08T00:22:26;102069.59;;;6.99;nan
14343;BME280;7255;53.596;9.960;2023-04-08T00:24:52;102066.91;;;6.90;nan
14343;BME280;7255;53.596;9.960;2023-04-08T00:27:19;102083.59;;;7.17;nan
14343;BME280;7255;53.596;9.960;2023-04-08T00:29:45;102087.41;;;7.39;nan
14343;BME280;7255;53.596;9.960;2023-04-08T00:32:12;102094.53;;;7.63;nan
14343;BME280;7255;53.596;9.960;2023-04-08T00:34:39;102086.28;;;7.81;nan
14343;BME280;7255;53.596;9.960;2023-04-08T00:37:06;102088.59;;;7.37;nan
14343;BME280;7255;53.596;9.960;2023-04-08T00:39:32;102068.75;;;7.15;nan
14343;BME280;7255;53.596;9.960;2023-04-08T00:41:59;102077.06;;;7.20;nan
14343;BME280;7255;53.596;9.960;2023-04-08T00:44:26;102077.75;;;7.13;nan
14343;BME280;7255;53.596;9.960;2023-04-08T00:46:52;102090.22;;;7.54;nan
14343;BME280;7255;53.596;9.960;2023-04-08T00:49:20;102086.72;;;7.45;nan
14343;BME280;7255;53.596;9.960;2023-04-08T00:51:46;102112.09;;;7.66;nan
14343;BME280;7255;53.596;9.960;2023-04-08T00:54:13;102106.75;;;7.58;nan
14343;BME280;7255;53.596;9.960;2023-04-08T00:56:39;102088.34;;;7.63;nan
14343;BME280;7255;53.596;9.960;2023-04-08T00:59:05;102098.03;;;7.72;nan
14343;BME280;7255;53.596;9.960;2023-04-08T01:01:38;102104.56;;;7.69;nan
14343;BME280;7255;53.596;9.960;2023-04-08T01:04:12;102096.88;;;7.58;nan
14343;BME280;7255;53.596;9.960;2023-04-08T01:06:47;102094.19;;;7.66;nan
14343;BME280;7255;53.596;9.960;2023-04-08T01:09:17;102081.91;;;7.16;nan
14343;BME280;7255;53.596;9.960;2023-04-08T01:11:45;102082.94;;;7.07;nan
14343;BME280;7255;53.596;9.960;2023-04-08T01:14:19;102094.59;;;7.30;nan
14343;BME280;7255;53.596;9.960;2023-04-08T01:16:46;102089.12;;;7.07;nan
14343;BME280;7255;53.596;9.960;2023-04-08T01:19:25;102093.44;;;7.33;nan
14343;BME280;7255;53.596;9.960;2023-04-08T01:22:00;102096.22;;;7.64;nan
14343;BME280;7255;53.596;9.960;2023-04-08T01:24:30;102079.59;;;6.88;nan
14343;BME280;7255;53.596;9.960;2023-04-08T01:27:00;102079.09;;;6.68;nan
14343;BME280;7255;53.596;9.960;2023-04-08T01:29:29;102073.09;;;6.91;nan
14343;BME280;7255;53.596;9.960;2023-04-08T01:31:56;102077.94;;;6.87;nan
14343;BME280;7255;53.596;9.960;2023-04-08T01:34:24;102079.56;;;7.21;nan
14343;BME280;7255;53.596;9.960;2023-04-08T01:36:52;102084.56;;;7.41;nan
14343;BME280;7255;53.596;9.960;2023-04-08T01:39:19;102085.41;;;7.41;nan
14343;BME280;7255;53.596;9.960;2023-04-08T01:41:47;102084.94;;;7.05;nan
14343;BME280;7255;53.596;9.960;2023-04-08T01:44:16;102076.25;;;6.86;nan
14343;BME280;7255;53.596;9.960;2023-04-08T01:46:43;102077.44;;;6.84;nan
14343;BME280;7255;53.596;9.960;2023-04-08T01:49:10;102068.59;;;6.91;nan
14343;BME280;7255;53.596;9.960;2023-04-08T01:51:37;102073.91;;;7.24;nan
14343;BME280;7255;53.596;9.960;2023-04-08T01:54:04;102076.56;;;7.16;nan
14343;BME280;7255;53.596;9.960;2023-04-08T01:56:36;102076.56;;;7.16;nan
14343;BME280;7255;53.596;9.960;2023-04-08T01:59:05;102066.06;;;6.73;nan
14343;BME280;7255;53.596;9.960;2023-04-08T02:01:36;102075.25;;;6.79;nan
14343;BME280;7255;53.596;9.960;2023-04-08T02:04:03;102062.06;;;6.94;nan
14343;BME280;7255;53.596;9.960;2023-04-08T02:06:29;102057.88;;;7.08;nan
14343;BME280;7255;53.596;9.960;2023-04-08T02:08:56;102051.56;;;6.68;nan
14343;BME280;7255;53.596;9.960;2023-04-08T02:11:22;102055.56;;;6.97;nan
14343;BME280;7255;53.596;9.960;2023-04-08T02:13:50;102058.41;;;6.95;nan
14343;BME280;7255;53.596;9.960;2023-04-08T02:16:20;102052.03;;;7.04;nan
14343;BME280;7255;53.596;9.960;2023-04-08T02:18:54;102061.56;;;7.07;nan
14343;BME280;7255;53.596;9.960;2023-04-08T02:21:26;102069.75;;;7.22;nan
14343;BME280;7255;53.596;9.960;2023-04-08T02:23:57;102064.91;;;7.09;nan
14343;BME280;7255;53.596;9.960;2023-04-08T02:26:25;102060.72;;;6.73;nan
14343;BME280;7255;53.596;9.960;2023-04-08T02:28:53;102052.72;;;6.98;nan
14343;BME280;7255;53.596;9.960;2023-04-08T02:31:20;102054.75;;;6.80;nan
14343;BME280;7255;53.596;9.960;2023-04-08T02:33:49;102058.06;;;6.65;nan
14343;BME280;7255;53.596;9.960;2023-04-08T02:36:16;102052.72;;;6.65;nan
14343;BME280;7255;53.596;9.960;2023-04-08T02:38:46;102052.22;;;6.62;nan
14343;BME280;7255;53.596;9.960;2023-04-08T02:41:13;102048.41;;;6.72;nan
14343;BME280;7255;53.596;9.960;2023-04-08T02:43:40;102054.38;;;6.66;nan
14343;BME280;7255;53.596;9.960;2023-04-08T02:46:06;102044.69;;;6.90;nan
14343;BME280;7255;53.596;9.960;2023-04-08T02:48:33;102052.56;;;6.91;nan
14343;BME280;7255;53.596;9.960;2023-04-08T02:51:01;102048.72;;;6.86;nan
14343;BME280;7255;53.596;9.960;2023-04-08T02:53:27;102048.53;;;6.96;nan
14343;BME280;7255;53.596;9.960;2023-04-08T02:55:54;102058.91;;;6.99;nan
14343;BME280;7255;53.596;9.960;2023-04-08T02:58:20;102058.56;;;6.69;nan
14343;BME280;7255;53.596;9.960;2023-04-08T03:00:47;102050.53;;;6.44;nan
14343;BME280;7255;53.596;9.960;2023-04-08T03:03:13;102052.38;;;6.52;nan
14343;BME280;7255;53.596;9.960;2023-04-08T03:05:39;102055.75;;;6.54;nan
14343;BME280;7255;53.596;9.960;2023-04-08T03:08:07;102064.75;;;6.69;nan
14343;BME280;7255;53.596;9.960;2023-04-08T03:10:33;102063.91;;;6.69;nan
14343;BME280;7255;53.596;9.960;2023-04-08T03:13:00;102062.91;;;6.62;nan
14343;BME280;7255;53.596;9.960;2023-04-08T03:15:26;102062.25;;;6.84;nan
14343;BME280;7255;53.596;9.960;2023-04-08T03:17:52;102055.75;;;6.54;nan
14343;BME280;7255;53.596;9.960;2023-04-08T03:20:19;102070.59;;;6.73;nan
14343;BME280;7255;53.596;9.960;2023-04-08T03:22:45;102072.25;;;6.74;nan
14343;BME280;7255;53.596;9.960;2023-04-08T03:25:13;102073.09;;;6.74;nan
14343;BME280;7255;53.596;9.960;2023-04-08T03:27:39;102074.44;;;6.79;nan
14343;BME280;7255;53.596;9.960;2023-04-08T03:30:06;102066.56;;;6.61;nan
14343;BME280;7255;53.596;9.960;2023-04-08T03:32:33;102076.91;;;6.47;nan
14343;BME280;7255;53.596;9.960;2023-04-08T03:34:59;102081.59;;;6.70;nan
14343;BME280;7255;53.596;9.960;2023-04-08T03:37:26;102074.41;;;6.46;nan
14343;BME280;7255;53.596;9.960;2023-04-08T03:39:53;102075.56;;;6.43;nan
14343;BME280;7255;53.596;9.960;2023-04-08T03:42:21;102077.94;;;6.54;nan
14343;BME280;7255;53.596;9.960;2023-04-08T03:44:47;102081.59;;;6.53;nan
14343;BME280;7255;53.596;9.960;2023-04-08T03:47:14;102098.97;;;6.58;nan
14343;BME280;7255;53.596;9.960;2023-04-08T03:49:40;102094.97;;;6.62;nan
14343;BME280;7255;53.596;9.960;2023-04-08T03:52:07;102087.28;;;6.50;nan
14343;BME280;7255;53.596;9.960;2023-04-08T03:54:33;102081.22;;;6.40;nan
14343;BME280;7255;53.596;9.960;2023-04-08T03:56:59;102084.72;;;6.32;nan
14343;BME280;7255;53.596;9.960;2023-04-08T03:59:27;102090.63;;;6.52;nan
14343;BME280;7255;53.596;9.960;2023-04-08T04:01:53;102091.09;;;6.40;nan
14343;BME280;7255;53.596;9.960;2023-04-08T04:04:20;102092.34;;;6.11;nan
14343;BME280;7255;53.596;9.960;2023-04-08T04:06:47;102091.37;;;6.20;nan
14343;BME280;7255;53.596;9.960;2023-04-08T04:09:13;102094.75;;;6.39;nan
14343;BME280;7255;53.596;9.960;2023-04-08T04:11:40;102100.03;;;6.22;nan
14343;BME280;7255;53.596;9.960;2023-04-08T04:14:07;102101.75;;;6.40;nan
14343;BME280;7255;53.596;9.960;2023-04-08T04:16:34;102108.25;;;6.37;nan
14343;BME280;7255;53.596;9.960;2023-04-08T04:19:01;102100.69;;;6.16;nan
14343;BME280;7255;53.596;9.960;2023-04-08T04:21:27;102116.31;;;6.62;nan
14343;BME280;7255;53.596;9.960;2023-04-08T04:23:53;102112.59;;;6.46;nan
14343;BME280;7255;53.596;9.960;2023-04-08T04:26:20;102116.12;;;6.55;nan
14343;BME280;7255;53.596;9.960;2023-04-08T04:28:46;102114.25;;;6.31;nan
14343;BME280;7255;53.596;9.960;2023-04-08T04:31:17;102112.25;;;6.33;nan
14343;BME280;7255;53.596;9.960;2023-04-08T04:33:45;102114.84;;;6.08;nan
14343;BME280;7255;53.596;9.960;2023-04-08T04:36:11;102108.53;;;6.18;nan
14343;BME280;7255;53.596;9.960;2023-04-08T04:38:38;102111.16;;;6.09;nan
14343;BME280;7255;53.596;9.960;2023-04-08T04:41:04;102104.81;;;6.02;nan
14343;BME280;7255;53.596;9.960;2023-04-08T04:43:31;102115.03;;;6.15;nan
14343;BME280;7255;53.596;9.960;2023-04-08T04:45:57;102110.91;;;6.29;nan
14343;BME280;7255;53.596;9.960;2023-04-08T04:48:23;102127.00;;;6.62;nan
14343;BME280;7255;53.596;9.960;2023-04-08T04:50:54;102131.16;;;6.48;nan
14343;BME280;7255;53.596;9.960;2023-04-08T04:53:21;102137.84;;;6.68;nan
14343;BME280;7255;53.596;9.960;2023-04-08T04:55:47;102120.56;;;6.22;nan
14343;BME280;7255;53.596;9.960;2023-04-08T04:58:13;102131.94;;;6.32;nan
14343;BME280;7255;53.596;9.960;2023-04-08T05:00:40;102147.69;;;6.51;nan
14343;BME280;7255;53.596;9.960;2023-04-08T05:03:06;102152.53;;;6.64;nan
14343;BME280;7255;53.596;9.960;2023-04-08T05:05:32;102151.63;;;6.31;nan
14343;BME280;7255;53.596;9.960;2023-04-08T05:08:00;102148.50;;;6.52;nan
14343;BME280;7255;53.596;9.960;2023-04-08T05:10:26;102155.72;;;6.60;nan
14343;BME280;7255;53.596;9.960;2023-04-08T05:12:53;102165.63;;;6.92;nan
14343;BME280;7255;53.596;9.960;2023-04-08T05:15:19;102148.84;;;6.49;nan
14343;BME280;7255;53.596;9.960;2023-04-08T05:17:45;102159.88;;;6.62;nan
14343;BME280;7255;53.596;9.960;2023-04-08T05:20:11;102165.75;;;6.66;nan
14343;BME280;7255;53.596;9.960;2023-04-08T05:22:38;102161.06;;;6.60;nan
14343;BME280;7255;53.596;9.960;2023-04-08T05:25:06;102159.94;;;6.95;nan
14343;BME280;7255;53.596;9.960;2023-04-08T05:27:33;102163.56;;;6.78;nan
14343;BME280;7255;53.596;9.960;2023-04-08T05:29:59;102172.37;;;6.53;nan
14343;BME280;7255;53.596;9.960;2023-04-08T05:32:26;102163.47;;;6.28;nan
14343;BME280;7255;53.596;9.960;2023-04-08T05:34:53;102160.66;;;6.46;nan
14343;BME280;7255;53.596;9.960;2023-04-08T05:37:19;102155.41;;;6.20;nan
14343;BME280;7255;53.596;9.960;2023-04-08T05:39:46;102152.00;;;6.44;nan
14343;BME280;7255;53.596;9.960;2023-04-08T05:42:14;102164.34;;;6.45;nan
14343;BME280;7255;53.596;9.960;2023-04-08T05:44:40;102159.22;;;6.68;nan
14343;BME280;7255;53.596;9.960;2023-04-08T05:47:08;102165.91;;;6.56;nan
14343;BME280;7255;53.596;9.960;2023-04-08T05:49:34;102172.41;;;6.70;nan
14343;BME280;7255;53.596;9.960;2023-04-08T05:52:00;102173.97;;;6.97;nan
14343;BME280;7255;53.596;9.960;2023-04-08T05:54:27;102177.75;;;6.70;nan
14343;BME280;7255;53.596;9.960;2023-04-08T05:56:54;102168.72;;;6.54;nan
14343;BME280;7255;53.596;9.960;2023-04-08T05:59:21;102169.31;;;6.32;nan
14343;BME280;7255;53.596;9.960;2023-04-08T06:01:48;102185.78;;;6.62;nan
14343;BME280;7255;53.596;9.960;2023-04-08T06:04:14;102176.09;;;6.69;nan
14343;BME280;7255;53.596;9.960;2023-04-08T06:06:41;102186.16;;;6.91;nan
14343;BME280;7255;53.596;9.960;2023-04-08T06:09:08;102199.06;;;7.12;nan
14343;BME280;7255;53.596;9.960;2023-04-08T06:11:34;102195.19;;;7.07;nan
14343;BME280;7255;53.596;9.960;2023-04-08T06:14:01;102195.53;;;7.04;nan
14343;BME280;7255;53.596;9.960;2023-04-08T06:16:28;102206.53;;;6.84;nan
14343;BME280;7255;53.596;9.960;2023-04-08T06:18:55;102193.81;;;6.86;nan
14343;BME280;7255;53.596;9.960;2023-04-08T06:21:21;102197.38;;;6.36;nan
14343;BME280;7255;53.596;9.960;2023-04-08T06:23:47;102197.69;;;6.33;nan
14343;BME280;7255;53.596;9.960;2023-04-08T06:26:14;102204.06;;;6.40;nan
14343;BME280;7255;53.596;9.960;2023-04-08T06:28:40;102205.81;;;6.58;nan
14343;BME280;7255;53.596;9.960;2023-04-08T06:31:06;102193.94;;;6.60;nan
14343;BME280;7255;53.596;9.960;2023-04-08T06:33:34;102207.41;;;6.42;nan
14343;BME280;7255;53.596;9.960;2023-04-08T06:36:01;102215.03;;;6.37;nan
14343;BME280;7255;53.596;9.960;2023-04-08T06:38:28;102214.09;;;6.46;nan
14343;BME280;7255;53.596;9.960;2023-04-08T06:40:54;102225.69;;;6.63;nan
14343;BME280;7255;53.596;9.960;2023-04-08T06:43:21;102230.50;;;6.60;nan
14343;BME280;7255;53.596;9.960;2023-04-08T06:45:48;102230.37;;;6.69;nan
14343;BME280;7255;53.596;9.960;2023-04-08T06:48:16;102221.62;;;6.51;nan
14343;BME280;7255;53.596;9.960;2023-04-08T06:50:43;102235.12;;;6.49;nan
14343;BME280;7255;53.596;9.960;2023-04-08T06:53:10;102230.03;;;6.30;nan
14343;BME280;7255;53.596;9.960;2023-04-08T06:55:36;102244.19;;;6.65;nan
14343;BME280;7255;53.596;9.960;2023-04-08T06:58:02;102244.75;;;6.85;nan
14343;BME280;7255;53.596;9.960;2023-04-08T07:00:29;102247.88;;;6.64;nan
14343;BME280;7255;53.596;9.960;2023-04-08T07:02:55;102245.06;;;6.65;nan
14343;BME280;7255;53.596;9.960;2023-04-08T07:05:22;102247.63;;;6.83;nan
14343;BME280;7255;53.596;9.960;2023-04-08T07:07:49;102258.00;;;7.03;nan
14343;BME280;7255;53.596;9.960;2023-04-08T07:10:16;102253.78;;;6.84;nan
14343;BME280;7255;53.596;9.960;2023-04-08T07:12:42;102248.84;;;6.54;nan
14343;BME280;7255;53.596;9.960;2023-04-08T07:15:09;102251.22;;;6.66;nan
14343;BME280;7255;53.596;9.960;2023-04-08T07:17:36;102257.13;;;6.86;nan
14343;BME280;7255;53.596;9.960;2023-04-08T07:20:04;102253.59;;;6.77;nan
14343;BME280;7255;53.596;9.960;2023-04-08T07:22:31;102265.44;;;6.74;nan
14343;BME280;7255;53.596;9.960;2023-04-08T07:24:58;102259.84;;;7.10;nan
14343;BME280;7255;53.596;9.960;2023-04-08T07:27:25;102270.03;;;7.07;nan
14343;BME280;7255;53.596;9.960;2023-04-08T07:29:51;102273.28;;;7.35;nan
14343;BME280;7255;53.596;9.960;2023-04-08T07:32:18;102266.41;;;7.41;nan
14343;BME280;7255;53.596;9.960;2023-04-08T07:34:44;102268.69;;;7.03;nan
14343;BME280;7255;53.596;9.960;2023-04-08T07:37:11;102257.28;;;6.76;nan
14343;BME280;7255;53.596;9.960;2023-04-08T07:39:37;102270.53;;;7.10;nan
14343;BME280;7255;53.596;9.960;2023-04-08T07:42:05;102269.09;;;6.73;nan
14343;BME280;7255;53.596;9.960;2023-04-08T07:44:31;102261.91;;;6.66;nan
14343;BME280;7255;53.596;9.960;2023-04-08T07:46:57;102274.66;;;6.80;nan
14343;BME280;7255;53.596;9.960;2023-04-08T07:49:23;102286.59;;;7.27;nan
14343;BME280;7255;53.596;9.960;2023-04-08T07:51:50;102289.59;;;7.16;nan
14343;BME280;7255;53.596;9.960;2023-04-08T07:54:17;102281.56;;;7.07;nan
14343;BME280;7255;53.596;9.960;2023-04-08T07:56:43;102281.13;;;6.78;nan
14343;BME280;7255;53.596;9.960;2023-04-08T07:59:11;102283.41;;;6.56;nan
14343;BME280;7255;53.596;9.960;2023-04-08T08:01:37;102296.59;;;6.58;nan
14343;BME280;7255;53.596;9.960;2023-04-08T08:04:04;102304.00;;;7.15;nan
14343;BME280;7255;53.596;9.960;2023-04-08T08:06:30;102306.19;;;7.36;nan
14343;BME280;7255;53.596;9.960;2023-04-08T08:08:57;102311.03;;;7.32;nan
14343;BME280;7255;53.596;9.960;2023-04-08T08:11:24;102305.19;;;7.45;nan
14343;BME280;7255;53.596;9.960;2023-04-08T08:13:52;102323.78;;;7.79;nan
14343;BME280;7255;53.596;9.960;2023-04-08T08:16:20;102328.44;;;7.85;nan
14343;BME280;7255;53.596;9.960;2023-04-08T08:18:46;102324.09;;;7.76;nan
14343;BME280;7255;53.596;9.960;2023-04-08T08:21:12;102322.97;;;7.79;nan
14343;BME280;7255;53.596;9.960;2023-04-08T08:23:39;102326.62;;;7.61;nan
14343;BME280;7255;53.596;9.960;2023-04-08T08:26:06;102318.09;;;7.66;nan
14343;BME280;7255;53.596;9.960;2023-04-08T08:28:34;102330.12;;;7.70;nan
14343;BME280;7255;53.596;9.960;2023-04-08T08:31:00;102317.34;;;7.23;nan
14343;BME280;7255;53.596;9.960;2023-04-08T08:33:28;102322.03;;;7.29;nan
14343;BME280;7255;53.596;9.960;2023-04-08T08:35:55;102317.69;;;7.20;nan
14343;BME280;7255;53.596;9.960;2023-04-08T08:38:22;102323.25;;;7.43;nan
14343;BME280;7255;53.596;9.960;2023-04-08T08:40:53;102313.84;;;7.30;nan
14343;BME280;7255;53.596;9.960;2023-04-08T08:43:19;102301.50;;;7.29;nan
14343;BME280;7255;53.596;9.960;2023-04-08T08:45:46;102328.59;;;7.43;nan
14343;BME280;7255;53.596;9.960;2023-04-08T08:48:12;102342.50;;;8.04;nan
14343;BME280;7255;53.596;9.960;2023-04-08T08:50:40;102336.31;;;8.03;nan
14343;BME280;7255;53.596;9.960;2023-04-08T08:53:06;102331.47;;;7.74;nan
14343;BME280;7255;53.596;9.960;2023-04-08T08:55:32;102338.16;;;7.78;nan
14343;BME280;7255;53.596;9.960;2023-04-08T08:57:59;102349.69;;;8.28;nan
14343;BME280;7255;53.596;9.960;2023-04-08T09:00:32;102361.00;;;8.71;nan
14343;BME280;7255;53.596;9.960;2023-04-08T09:03:16;102367.09;;;8.48;nan
14343;BME280;7255;53.596;9.960;2023-04-08T09:05:51;102346.53;;;8.00;nan
14343;BME280;7255;53.596;9.960;2023-04-08T09:08:25;102354.22;;;8.11;nan
14343;BME280;7255;53.596;9.960;2023-04-08T09:10:52;102353.38;;;8.10;nan
14343;BME280;7255;53.596;9.960;2023-04-08T09:13:18;102348.03;;;7.78;nan
14343;BME280;7255;53.596;9.960;2023-04-08T09:16:01;102359.56;;;7.95;nan
14343;BME280;7255;53.596;9.960;2023-04-08T09:18:29;102359.75;;;8.01;nan
14343;BME280;7255;53.596;9.960;2023-04-08T09:20:58;102355.72;;;7.89;nan
14343;BME280;7255;53.596;9.960;2023-04-08T09:23:36;102366.94;;;8.42;nan
14343;BME280;7255;53.596;9.960;2023-04-08T09:26:06;102366.09;;;8.25;nan
14343;BME280;7255;53.596;9.960;2023-04-08T09:28:32;102350.88;;;8.09;nan
14343;BME280;7255;53.596;9.960;2023-04-08T09:30:59;102370.13;;;8.04;nan
14343;BME280;7255;53.596;9.960;2023-04-08T09:33:29;102371.94;;;7.63;nan
14343;BME280;7255;53.596;9.960;2023-04-08T09:35:55;102371.12;;;7.79;nan
14343;BME280;7255;53.596;9.960;2023-04-08T09:38:23;102376.13;;;8.15;nan
14343;BME280;7255;53.596;9.960;2023-04-08T09:40:50;102374.28;;;8.07;nan
14343;BME280;7255;53.596;9.960;2023-04-08T09:43:21;102381.31;;;8.57;nan
14343;BME280;7255;53.596;9.960;2023-04-08T09:45:49;102383.63;;;9.08;nan
14343;BME280;7255;53.596;9.960;2023-04-08T09:48:17;102391.09;;;8.90;nan
14343;BME280;7255;53.596;9.960;2023-04-08T09:50:49;102399.66;;;8.85;nan
14343;BME280;7255;53.596;9.960;2023-04-08T09:53:19;102393.38;;;9.01;nan
14343;BME280;7255;53.596;9.960;2023-04-08T09:55:54;102398.69;;;9.17;nan
14343;BME280;7255;53.596;9.960;2023-04-08T09:58:27;102388.94;;;9.24;nan
14343;BME280;7255;53.596;9.960;2023-04-08T10:00:54;102404.59;;;9.44;nan
14343;BME280;7255;53.596;9.960;2023-04-08T10:03:26;102398.81;;;9.24;nan
14343;BME280;7255;53.596;9.960;2023-04-08T10:05:53;102392.44;;;8.77;nan
14343;BME280;7255;53.596;9.960;2023-04-08T10:08:21;102377.34;;;8.84;nan
14343;BME280;7255;53.596;9.960;2023-04-08T10:10:47;102386.97;;;8.71;nan
14343;BME280;7255;53.596;9.960;2023-04-08T10:13:15;102391.09;;;8.90;nan
14343;BME280;7255;53.596;9.960;2023-04-08T10:15:42;102400.66;;;8.92;nan
14343;BME280;7255;53.596;9.960;2023-04-08T10:18:29;102394.50;;;9.15;nan
14343;BME280;7255;53.596;9.960;2023-04-08T10:20:56;102399.37;;;9.11;nan
14343;BME280;7255;53.596;9.960;2023-04-08T10:23:51;102388.66;;;9.11;nan
14343;BME280;7255;53.596;9.960;2023-04-08T10:26:29;102404.84;;;9.57;nan
14343;BME280;7255;53.596;9.960;2023-04-08T10:31:54;102382.63;;;8.61;nan
14343;BME280;7255;53.596;9.960;2023-04-08T10:34:22;102394.78;;;8.89;nan
14343;BME280;7255;53.596;9.960;2023-04-08T10:36:50;102392.44;;;8.77;nan
14343;BME280;7255;53.596;9.960;2023-04-08T10:39:18;102401.47;;;8.93;nan
14343;BME280;7255;53.596;9.960;2023-04-08T10:41:45;102391.72;;;9.00;nan
14343;BME280;7255;53.596;9.960;2023-04-08T10:44:14;102405.63;;;8.95;nan
14343;BME280;7255;53.596;9.960;2023-04-08T10:46:41;102401.97;;;8.96;nan
14343;BME280;7255;53.596;9.960;2023-04-08T10:49:09;102404.19;;;9.24;nan
14343;BME280;7255;53.596;9.960;2023-04-08T10:51:37;102408.66;;;9.40;nan
14343;BME280;7255;53.596;9.960;2023-04-08T10:54:06;102406.28;;;9.05;nan
14343;BME280;7255;53.596;9.960;2023-04-08T10:56:35;102407.94;;;9.06;nan
14343;BME280;7255;53.596;9.960;2023-04-08T10:59:02;102405.69;;;8.79;nan
14343;BME280;7255;53.596;9.960;2023-04-08T11:01:37;102402.84;;;8.80;nan
14343;BME280;7255;53.596;9.960;2023-04-08T11:04:11;102408.69;;;8.84;nan
14343;BME280;7255;53.596;9.960;2023-04-08T11:06:37;102402.09;;;8.47;nan
14343;BME280;7255;53.596;9.960;2023-04-08T11:09:04;102398.53;;;8.38;nan
14343;BME280;7255;53.596;9.960;2023-04-08T11:11:31;102395.91;;;8.46;nan
14343;BME280;7255;53.596;9.960;2023-04-08T11:13:57;102403.66;;;8.81;nan
14343;BME280;7255;53.596;9.960;2023-04-08T11:16:25;102407.72;;;8.77;nan
14343;BME280;7255;53.596;9.960;2023-04-08T11:18:52;102418.25;;;8.86;nan
14343;BME280;7255;53.596;9.960;2023-04-08T11:21:19;102417.69;;;9.39;nan
14343;BME280;7255;53.596;9.960;2023-04-08T11:23:48;102430.50;;;9.83;nan
14343;BME280;7255;53.596;9.960;2023-04-08T11:26:14;102430.63;;;9.67;nan
14343;BME280;7255;53.596;9.960;2023-04-08T11:28:41;102423.00;;;9.78;nan
14343;BME280;7255;53.596;9.960;2023-04-08T11:31:08;102434.47;;;9.95;nan
14343;BME280;7255;53.596;9.960;2023-04-08T11:33:34;102431.81;;;9.87;nan
14343;BME280;7255;53.596;9.960;2023-04-08T11:36:02;102434.56;;;10.25;nan
14343;BME280;7255;53.596;9.960;2023-04-08T11:38:29;102431.22;;;10.00;nan
14343;BME280;7255;53.596;9.960;2023-04-08T11:40:57;102430.16;;;9.86;nan
14343;BME280;7255;53.596;9.960;2023-04-08T11:43:24;102427.91;;;9.75;nan
14343;BME280;7255;53.596;9.960;2023-04-08T11:45:51;102421.19;;;9.71;nan
14343;BME280;7255;53.596;9.960;2023-04-08T11:48:17;102420.37;;;9.70;nan
14343;BME280;7255;53.596;9.960;2023-04-08T11:50:44;102405.25;;;9.15;nan
14343;BME280;7255;53.596;9.960;2023-04-08T11:53:17;102411.38;;;8.92;nan
14343;BME280;7255;53.596;9.960;2023-04-08T11:55:46;102406.53;;;8.79;nan
14343;BME280;7255;53.596;9.960;2023-04-08T11:58:12;102402.16;;;8.86;nan
14343;BME280;7255;53.596;9.960;2023-04-08T12:00:40;102422.00;;;9.48;nan
14343;BME280;7255;53.596;9.960;2023-04-08T12:03:07;102423.22;;;9.46;nan
14343;BME280;7255;53.596;9.960;2023-04-08T12:05:33;102418.75;;;9.30;nan
14343;BME280;7255;53.596;9.960;2023-04-08T12:08:00;102426.53;;;9.48;nan
14343;BME280;7255;53.596;9.960;2023-04-08T12:10:26;102430.22;;;9.47;nan
14343;BME280;7255;53.596;9.960;2023-04-08T12:12:54;102424.75;;;9.40;nan
14343;BME280;7255;53.596;9.960;2023-04-08T12:15:20;102436.38;;;9.63;nan
14343;BME280;7255;53.596;9.960;2023-04-08T12:17:47;102437.75;;;9.51;nan
14343;BME280;7255;53.596;9.960;2023-04-08T12:20:13;102447.78;;;9.57;nan
14343;BME280;7255;53.596;9.960;2023-04-08T12:22:41;102436.66;;;9.37;nan
14343;BME280;7255;53.596;9.960;2023-04-08T12:25:08;102427.03;;;9.51;nan
14343;BME280;7255;53.596;9.960;2023-04-08T12:27:34;102438.09;;;9.48;nan
14343;BME280;7255;53.596;9.960;2023-04-08T12:30:02;102428.00;;;9.19;nan
14343;BME280;7255;53.596;9.960;2023-04-08T12:32:29;102417.72;;;8.99;nan
14343;BME280;7255;53.596;9.960;2023-04-08T12:34:55;102412.06;;;8.70;nan
14343;BME280;7255;53.596;9.960;2023-04-08T12:37:22;102417.50;;;9.09;nan
14343;BME280;7255;53.596;9.960;2023-04-08T12:39:48;102415.69;;;9.01;nan
14343;BME280;7255;53.596;9.960;2023-04-08T12:42:14;102424.03;;;9.46;nan
14343;BME280;7255;53.596;9.960;2023-04-08T12:44:41;102426.06;;;9.44;nan
14343;BME280;7255;53.596;9.960;2023-04-08T12:47:08;102433.97;;;9.69;nan
14343;BME280;7255;53.596;9.960;2023-04-08T12:49:35;102445.81;;;10.06;nan
14343;BME280;7255;53.596;9.960;2023-04-08T12:52:01;102443.28;;;9.81;nan
14343;BME280;7255;53.596;9.960;2023-04-08T12:54:27;102434.94;;;9.99;nan
14343;BME280;7255;53.596;9.960;2023-04-08T12:56:55;102442.56;;;9.87;nan
14343;BME280;7255;53.596;9.960;2023-04-08T12:59:22;102438.75;;;10.05;nan
14343;BME280;7255;53.596;9.960;2023-04-08T13:01:48;102443.19;;;9.97;nan
14343;BME280;7255;53.596;9.960;2023-04-08T13:04:16;102450.34;;;10.28;nan
14343;BME280;7255;53.596;9.960;2023-04-08T13:06:43;102452.25;;;10.43;nan
14343;BME280;7255;53.596;9.960;2023-04-08T13:09:10;102466.19;;;10.61;nan
14343;BME280;7255;53.596;9.960;2023-04-08T13:11:36;102455.69;;;10.05;nan
14343;BME280;7255;53.596;9.960;2023-04-08T13:14:02;102455.00;;;10.11;nan
14343;BME280;7255;53.596;9.960;2023-04-08T13:16:29;102456.56;;;10.06;nan
14343;BME280;7255;53.596;9.960;2023-04-08T13:18:56;102448.66;;;9.81;nan
14343;BME280;7255;53.596;9.960;2023-04-08T13:21:23;102443.37;;;9.64;nan
14343;BME280;7255;53.596;9.960;2023-04-08T13:23:50;102441.81;;;9.47;nan
14343;BME280;7255;53.596;9.960;2023-04-08T13:26:17;102447.31;;;9.54;nan
14343;BME280;7255;53.596;9.960;2023-04-08T13:28:43;102447.94;;;9.64;nan
14343;BME280;7255;53.596;9.960;2023-04-08T13:31:09;102451.50;;;9.79;nan
14343;BME280;7255;53.596;9.960;2023-04-08T13:33:36;102447.66;;;9.51;nan
14343;BME280;7255;53.596;9.960;2023-04-08T13:36:02;102440.97;;;9.47;nan